LESO Airport Information

Runway Information
Runway 04 Length 4780 ft width 148 ft
Elevation 10 ft Threshold ft Heading 39
Runway 22 Length 4780 ft Width 148 ft
Elevation 15 ft Threshold ft Heading 219
Airport Frequencies
Type TWR Name SAN SEBAST Frequency 119.85 MHZ
Airport Navaids
Type NDB-DME Name San Sebastian Frequency 328 KHZ
Type VOR-DME Name San Sebastian Frequency 117900 KHZ
Airport Weather Information & NOTAM
ADDS - METARS form results

(2010 UTC 10 August 2022)
Data provider http://aviationweather.gov/metar/data/
 
METAR text: LESO 102000Z AUTO VRB02KT CAVOK 27/19 Q1013
Conditions at: LESO (SAN SEBASTIAN/FU, ES) observed 2000 UTC 10 August 2022
Temperature: 27.0°C (81°F)
Dewpoint: 19.0°C (66°F) [RH = 62%]
Pressure (altimeter): 29.91 inches Hg (1013.0 mb)
Winds: variable direction winds at 2 MPH (2 knots; 1.0 m/s)
Visibility: 6 or more miles (10+ km)
Ceiling: ceiling and visibility are OK
Clouds: unknown
Weather: no significant weather observed at this time

METAR text: LESO 101930Z VRB01KT CAVOK 28/18 Q1013
Conditions at: LESO (SAN SEBASTIAN/FU, ES) observed 1930 UTC 10 August 2022
Temperature: 28.0°C (82°F)
Dewpoint: 18.0°C (64°F) [RH = 55%]
Pressure (altimeter): 29.91 inches Hg (1013.0 mb)
Winds: variable direction winds at 1 MPH (1 knots; 0.5 m/s)
Visibility: 6 or more miles (10+ km)
Ceiling: ceiling and visibility are OK
Clouds: unknown
Weather: no significant weather observed at this time

Forecast for: LESO (SAN SEBASTIAN/FU, ES)
Text: TAF LESO 101700Z 1018/1118 25008KT CAVOK TX33/1114Z TN23/1106Z
Forecast period: 1800 UTC 10 August 2022 to 1800 UTC 11 August 2022
Forecast type: FROM: standard forecast or significant change
Winds: from the WSW (250 degrees) at 9 MPH (8 knots; 4.1 m/s)
Visibility: 6 or more miles (10+ km)
Ceiling: unknown
Clouds: missing
Weather: no significant weather forecast for this period
Text: TEMPO 1018/1021 SCT040TCU SCT045CB
Forecast period: 1800 to 2100 UTC 10 August 2022
Forecast type: TEMPORARY: The following changes expected for less than half the time period
Visibility: missing
Ceiling: at least 12,000 feet AGL
Clouds: scattered clouds at 4000 feet AGL
scattered clouds at 4500 feet AGL
Weather: no significant weather forecast for this period
Text: PROB30
Forecast period: 1800 to 2100 UTC 10 August 2022
Forecast type: TEMPORARY: The following changes expected for less than half the time period
Visibility: missing
Ceiling: at least 12,000 feet AGL
Clouds: scattered clouds at 4500 feet AGL
Weather: TS SHRA  (thunderstorm, rain showers)